AirNav   Pilot Hours Calculator
 
 1117 users online  

T37 Goldthwaite Municipal Airport
Goldthwaite, Texas, USA

GOING TO GOLDTHWAITE?


FAA INFORMATION EFFECTIVE 02 JANUARY 2020

Location

FAA Identifier: T37
Lat/Long: 31-25-44.6400N 098-36-30.0800W
31-25.744000N 098-36.501333W
31.4290667,-98.6083556
(estimated)
Elevation: 1457 ft. / 444 m (estimated)
From city: 2 miles SW of GOLDTHWAITE, TX
Time zone: UTC -6 (UTC -5 during Daylight Saving Time)
Zip code: 76844

Airport Operations

Airport use: Open to the public
Activation date: 08/2010
Control tower: no
ARTCC: FORT WORTH CENTER
FSS: FORT WORTH FLIGHT SERVICE STATION
NOTAMs facility: FTW (NOTAM-D service available)
Attendance: 0800-1700
Wind indicator: lighted
Segmented circle: yes

Airport Communications

CTAF: 122.9
WX AWOS-3 at 81R (13 nm SW): PHONE 325-372-6027

Nearby radio navigation aids

VOR radial/distance  VOR name  Freq  Var
AGJr296/28.0GOOCH SPRINGS VORTAC112.5005E
BWDr139/33.0BROWNWOOD VOR/DME108.6008E
LLOr006/39.1LLANO VORTAC108.2008E

Airport Services

Parking: hangars

Runway Information

Runway 1/19

Dimensions: 3200 x 60 ft. / 975 x 18 m
Surface: asphalt, in good condition
Weight bearing capacity: 
Single wheel: 12.5
RUNWAY 1  RUNWAY 19
Latitude: 31-25.485000N31-26.002833N
Longitude: 098-36.560833W098-36.442000W
Elevation: 1445.0 ft.1457.0 ft.
Traffic pattern: leftleft
Markings: basic, in fair conditionbasic, in fair condition
Obstructions: 3 ft. fence, 200 ft. from runway, 91 ft. left of centerline
3 FT FENCE 0-200 FT FM THLD 91 FT L.
50 ft. tree, 1133 ft. from runway, 32 ft. left of centerline, 18:1 slope to clear

Airport Ownership and Management from official FAA records

Ownership: Publicly-owned
Owner: CITY OF GOLDTHWAITE
PO BOX 450
GOLDTHWAITE, TX 76844-0450
Phone 325-648-3186
Manager: ROBERT LINDSEY
PO BOX 450
GOLDTHWAITE, TX 76844-0450
Phone 325-648-3186
CITY MANAGER

Airport Operational Statistics

Aircraft based on the field: 9
Single engine airplanes: 9
    
Aircraft operations: avg 52/week *
67% local general aviation
33% transient general aviation
* for 12-month period ending 13 September 2017

Additional Remarks

RWY 01 HAS 4 FT FENCE AND ISOLATED + 18 FT TREES 400-475 FT FM THLD ACROSS APCH.
DEER ON & INVOF ARPT.
FOR CD CTC FORT WORTH ARTCC AT 817-858-7584.

Instrument Procedures

There are no published instrument procedures at T37.

Some nearby airports with instrument procedures:

KMNZ - Hamilton Municipal Airport (27 nm NE)
KBWD - Brownwood Regional Airport (28 nm NW)
KLZZ - Lampasas Airport (29 nm SE)
KMKN - Comanche County-City Airport (29 nm N)
KAQO - Llano Municipal Airport (39 nm S)
 
Loc | Ops | Rwys | IFR | FBO | Links
Com | Nav | Svcs | Stats | Notes
Aerial photo
WARNING: Photo may not be current or correct
Aerial photo of T37 (Goldthwaite Municipal Airport)
Photo taken 20-Sep-2010

Do you have a better or more recent aerial photo of Goldthwaite Municipal Airport that you would like to share? If so, please send us your photo.

 
Sectional chart

 
Airport distance calculator
Flying to Goldthwaite Municipal Airport? Find the distance to fly.

From to T37

Sunrise and sunset
Times for 20-Jan-2020
 Local
(UTC-6)
 Zulu
(UTC)
Morning civil twilight07:0813:08
Sunrise07:3413:34
Sunset17:5723:57
Evening civil twilight18:2300:23

Current date and time
Zulu (UTC)  21-Jan-2020 01:00:03
Local (UTC-6)  20-Jan-2020 19:00:03
 
METAR
KMNZ 
27nm NE 
210035Z AUTO 14005KT 10SM CLR 10/M03 A3046 RMK AO2 T00961032
KBWD 
28nm NW 
210035Z AUTO 11003KT 10SM CLR 08/M02 A3044 RMK AO1
KMKN 
29nm N 
210043Z AUTO 15004KT 10SM CLR 09/M04 A3044 RMK AO2
KAQO 
39nm S 
210030Z AUTO 00000KT 10SM CLR 11/M02 A3048 RMK AO2 PWINO
KBBD 
40nm W 
210035Z AUTO 12005KT 10SM CLR 10/M07 A3042 RMK AO2
KGOP 
42nm E 
210035Z AUTO 00000KT 10SM CLR 10/M04 A3048 RMK AO2
KGRK 
45nm SE 
202358Z AUTO 12005KT 6SM HZ CLR 11/M05 A3044 RMK AO2 SLP313 T01081051 10147 20108 56007 $
KBMQ 
46nm SE 
210053Z AUTO 11004KT 10SM CLR 09/M03 A3047 RMK AO2 SLP322 T00941033 $
KCOM 
48nm NW 
210035Z AUTO 00000KT 10SM CLR 11/M05 A3043 RMK AO2 T01061049
KHLR 
49nm E 
202358Z AUTO 12003KT 6SM HZ CLR 12/M05 A3045 RMK AO2 SLP314 T01191047 10152 20118 58006
TAF
KBBD 
40nm W 
201720Z 2018/2118 16005KT P6SM SCT100 BKN250
KGRK 
45nm SE 
210000Z 2100/2206 VRB06KT 9999 SKC QNH3043INS BECMG 2106/2107 18006KT 9999 FEW080 QNH3026INS BECMG 2205/2206 14009KT 9000 -SHRA OVC030 QNH3020INS TX12/2121Z TN02/2112Z
NOTAMs
Click for the latest NOTAMs
NOTAMs are issued by the DoD/FAA and will open in a separate window not controlled by AirNav.

 

 
 

Would you like to see your business listed on this page?

 If your business provides an interesting product or service to pilots, flight crews, aircraft, or users of the Goldthwaite Municipal Airport, you should consider listing it here.  To start the listing process, click on the button below
 
Add a business
 

Other Pages about Goldthwaite Municipal Airport

Update a link
 
Copyright © AirNav, LLC. All rights reserved. Privacy Policy  Contact